Accueil
METAR-TAF:

METAR-TAF

Aéroports :

Vavaʻu, Tonga

Aéroport de Vavaʻu

latitude: 18-35-07S, longitude: 173-57-42W, altitude: 72 m

Observation

Le bulletin a été fait il y a 38 minutes, à 22:00 UTC
Vent 12 kt de est/nord-est
Température 27°C
Humidité 79%
Pression 1018 hPa
Visibilité 10 km ou plus
Quelques nuages à une hauteur de 900 ft
Nuages fragmentés à une hauteur de 1700 ft

METAR: NFTV 232200Z 07012KT 9999 FEW009 BKN017 27/23 Q1018

Heure: 11:38 (22:38 UTC)

Prévision

Le bulletin a été fait il y a 5 heures et 34 minutes, à 17:04 UTC
Prévision valable du 23 à 18 UTC au 24 à 18 UTC
Vent 10 kt de est
Visibilité 10 km ou plus
Quelques nuages à une hauteur de 800 ft
Nuages épars à une hauteur de 1700 ft
Nuages épars à une hauteur de 10000 ft

TAF: NFTV 231704Z 2318/2418 10010KT 9999 FEW008 SCT017 SCT100

Observations et prévisions météorologiques de plus de 4000 aéroports (messages METAR et TAF).

Les stations disponibles sont représentées par des disques jaunes et rouges sur la carte.

Passer la souris dessus pour voir le nom de la station.

Cliquer dessus pour voir les observations et prévisions météorologiques.

Pour changer de carte: cliquez sur les boutons verts avec une croix noire pour zoomer, sur le bouton vert avec un tiret pour effectuer un zoom arrière, ou sur les flèches vertes pour les cartes adjacentes.


METAR-TAF: